sensor_id;sensor_type;location;lat;lon;timestamp;P1;durP1;ratioP1;P2;durP2;ratioP2
7541;SDS011;3812;50.006;8.230;2022-09-03T00:00:23;1.80;;;1.23;;
7541;SDS011;3812;50.006;8.230;2022-09-03T00:02:51;1.30;;;1.20;;
7541;SDS011;3812;50.006;8.230;2022-09-03T00:05:24;1.30;;;1.20;;
7541;SDS011;3812;50.006;8.230;2022-09-03T00:07:54;1.20;;;1.10;;
7541;SDS011;3812;50.006;8.230;2022-09-03T00:10:25;2.83;;;1.20;;
7541;SDS011;3812;50.006;8.230;2022-09-03T00:12:55;2.00;;;1.50;;
7541;SDS011;3812;50.006;8.230;2022-09-03T00:15:24;2.20;;;1.40;;
7541;SDS011;3812;50.006;8.230;2022-09-03T00:17:53;1.50;;;1.20;;
7541;SDS011;3812;50.006;8.230;2022-09-03T00:20:23;1.20;;;1.10;;
7541;SDS011;3812;50.006;8.230;2022-09-03T00:22:53;1.67;;;1.20;;
7541;SDS011;3812;50.006;8.230;2022-09-03T00:25:23;1.40;;;1.30;;
7541;SDS011;3812;50.006;8.230;2022-09-03T00:27:55;1.47;;;1.30;;
7541;SDS011;3812;50.006;8.230;2022-09-03T00:30:24;1.50;;;1.30;;
7541;SDS011;3812;50.006;8.230;2022-09-03T00:32:53;4.63;;;1.53;;
7541;SDS011;3812;50.006;8.230;2022-09-03T00:35:23;1.40;;;1.30;;
7541;SDS011;3812;50.006;8.230;2022-09-03T00:37:52;2.00;;;1.40;;
7541;SDS011;3812;50.006;8.230;2022-09-03T00:40:31;1.47;;;1.20;;
7541;SDS011;3812;50.006;8.230;2022-09-03T00:43:05;2.13;;;1.27;;
7541;SDS011;3812;50.006;8.230;2022-09-03T00:45:37;1.07;;;1.07;;
7541;SDS011;3812;50.006;8.230;2022-09-03T00:48:11;2.13;;;1.50;;
7541;SDS011;3812;50.006;8.230;2022-09-03T00:50:44;2.37;;;1.40;;
7541;SDS011;3812;50.006;8.230;2022-09-03T00:53:19;1.20;;;1.10;;
7541;SDS011;3812;50.006;8.230;2022-09-03T00:55:51;2.50;;;1.30;;
7541;SDS011;3812;50.006;8.230;2022-09-03T00:58:30;1.93;;;1.30;;
7541;SDS011;3812;50.006;8.230;2022-09-03T01:01:01;1.20;;;1.10;;
7541;SDS011;3812;50.006;8.230;2022-09-03T01:03:35;1.47;;;1.30;;
7541;SDS011;3812;50.006;8.230;2022-09-03T01:06:07;1.00;;;1.00;;
7541;SDS011;3812;50.006;8.230;2022-09-03T01:08:44;1.30;;;1.20;;
7541;SDS011;3812;50.006;8.230;2022-09-03T01:11:17;2.30;;;1.20;;
7541;SDS011;3812;50.006;8.230;2022-09-03T01:13:55;1.40;;;1.30;;
7541;SDS011;3812;50.006;8.230;2022-09-03T01:16:24;2.83;;;1.10;;
7541;SDS011;3812;50.006;8.230;2022-09-03T01:18:55;1.40;;;1.30;;
7541;SDS011;3812;50.006;8.230;2022-09-03T01:21:33;1.40;;;1.30;;
7541;SDS011;3812;50.006;8.230;2022-09-03T01:24:12;1.20;;;1.10;;
7541;SDS011;3812;50.006;8.230;2022-09-03T01:26:53;1.20;;;1.10;;
7541;SDS011;3812;50.006;8.230;2022-09-03T01:29:24;1.40;;;1.30;;
7541;SDS011;3812;50.006;8.230;2022-09-03T01:31:57;4.60;;;1.33;;
7541;SDS011;3812;50.006;8.230;2022-09-03T01:34:30;1.43;;;1.33;;
7541;SDS011;3812;50.006;8.230;2022-09-03T01:37:03;1.60;;;1.20;;
7541;SDS011;3812;50.006;8.230;2022-09-03T01:39:36;1.30;;;1.20;;
7541;SDS011;3812;50.006;8.230;2022-09-03T01:42:09;1.20;;;1.10;;
7541;SDS011;3812;50.006;8.230;2022-09-03T01:44:52;2.20;;;1.20;;
7541;SDS011;3812;50.006;8.230;2022-09-03T01:47:27;1.17;;;1.17;;
7541;SDS011;3812;50.006;8.230;2022-09-03T01:50:00;2.63;;;1.23;;
7541;SDS011;3812;50.006;8.230;2022-09-03T01:52:32;1.70;;;1.00;;
7541;SDS011;3812;50.006;8.230;2022-09-03T01:55:05;1.30;;;1.20;;
7541;SDS011;3812;50.006;8.230;2022-09-03T01:57:44;1.43;;;1.30;;
7541;SDS011;3812;50.006;8.230;2022-09-03T02:00:15;1.20;;;1.10;;
7541;SDS011;3812;50.006;8.230;2022-09-03T02:02:43;2.10;;;1.30;;
7541;SDS011;3812;50.006;8.230;2022-09-03T02:05:13;1.50;;;1.30;;
7541;SDS011;3812;50.006;8.230;2022-09-03T02:07:43;1.13;;;1.03;;
7541;SDS011;3812;50.006;8.230;2022-09-03T02:10:11;2.03;;;1.20;;
7541;SDS011;3812;50.006;8.230;2022-09-03T02:12:39;2.47;;;1.20;;
7541;SDS011;3812;50.006;8.230;2022-09-03T02:15:09;2.23;;;1.30;;
7541;SDS011;3812;50.006;8.230;2022-09-03T02:17:39;1.77;;;1.10;;
7541;SDS011;3812;50.006;8.230;2022-09-03T02:20:09;4.50;;;1.13;;
7541;SDS011;3812;50.006;8.230;2022-09-03T02:22:37;1.33;;;1.23;;
7541;SDS011;3812;50.006;8.230;2022-09-03T02:25:05;1.20;;;1.10;;
7541;SDS011;3812;50.006;8.230;2022-09-03T02:27:32;2.23;;;1.40;;
7541;SDS011;3812;50.006;8.230;2022-09-03T02:29:59;1.17;;;1.10;;
7541;SDS011;3812;50.006;8.230;2022-09-03T02:32:27;1.20;;;1.10;;
7541;SDS011;3812;50.006;8.230;2022-09-03T02:34:56;1.20;;;1.03;;
7541;SDS011;3812;50.006;8.230;2022-09-03T02:37:23;2.77;;;1.17;;
7541;SDS011;3812;50.006;8.230;2022-09-03T02:39:51;1.20;;;1.10;;
7541;SDS011;3812;50.006;8.230;2022-09-03T02:42:18;1.30;;;1.20;;
7541;SDS011;3812;50.006;8.230;2022-09-03T02:44:46;1.77;;;1.07;;
7541;SDS011;3812;50.006;8.230;2022-09-03T02:47:14;1.90;;;1.13;;
7541;SDS011;3812;50.006;8.230;2022-09-03T02:49:45;1.53;;;1.10;;
7541;SDS011;3812;50.006;8.230;2022-09-03T02:52:13;4.00;;;1.30;;
7541;SDS011;3812;50.006;8.230;2022-09-03T02:54:41;1.37;;;1.23;;
7541;SDS011;3812;50.006;8.230;2022-09-03T02:57:11;1.40;;;1.07;;
7541;SDS011;3812;50.006;8.230;2022-09-03T02:59:39;1.63;;;1.07;;
7541;SDS011;3812;50.006;8.230;2022-09-03T03:02:08;1.30;;;1.03;;
7541;SDS011;3812;50.006;8.230;2022-09-03T03:04:36;2.17;;;1.17;;
7541;SDS011;3812;50.006;8.230;2022-09-03T03:07:03;2.53;;;1.17;;
7541;SDS011;3812;50.006;8.230;2022-09-03T03:09:32;1.37;;;1.27;;
7541;SDS011;3812;50.006;8.230;2022-09-03T03:12:00;1.23;;;1.03;;
7541;SDS011;3812;50.006;8.230;2022-09-03T03:14:27;1.90;;;1.10;;
7541;SDS011;3812;50.006;8.230;2022-09-03T03:16:55;1.43;;;1.17;;
7541;SDS011;3812;50.006;8.230;2022-09-03T03:19:22;1.70;;;1.40;;
7541;SDS011;3812;50.006;8.230;2022-09-03T03:21:49;1.40;;;1.10;;
7541;SDS011;3812;50.006;8.230;2022-09-03T03:24:17;1.37;;;1.20;;
7541;SDS011;3812;50.006;8.230;2022-09-03T03:26:45;1.40;;;1.30;;
7541;SDS011;3812;50.006;8.230;2022-09-03T03:29:13;1.47;;;1.23;;
7541;SDS011;3812;50.006;8.230;2022-09-03T03:31:41;2.07;;;1.10;;
7541;SDS011;3812;50.006;8.230;2022-09-03T03:34:08;1.10;;;1.10;;
7541;SDS011;3812;50.006;8.230;2022-09-03T03:36:35;1.27;;;1.17;;
7541;SDS011;3812;50.006;8.230;2022-09-03T03:39:03;2.00;;;1.30;;
7541;SDS011;3812;50.006;8.230;2022-09-03T03:41:31;1.50;;;1.40;;
7541;SDS011;3812;50.006;8.230;2022-09-03T03:44:00;1.20;;;1.13;;
7541;SDS011;3812;50.006;8.230;2022-09-03T03:46:28;1.40;;;1.30;;
7541;SDS011;3812;50.006;8.230;2022-09-03T03:48:56;2.67;;;1.20;;
7541;SDS011;3812;50.006;8.230;2022-09-03T03:51:24;1.27;;;1.20;;
7541;SDS011;3812;50.006;8.230;2022-09-03T03:53:52;1.37;;;1.27;;
7541;SDS011;3812;50.006;8.230;2022-09-03T03:56:20;2.23;;;1.10;;
7541;SDS011;3812;50.006;8.230;2022-09-03T03:58:48;1.43;;;1.33;;
7541;SDS011;3812;50.006;8.230;2022-09-03T04:01:17;1.30;;;1.20;;
7541;SDS011;3812;50.006;8.230;2022-09-03T04:03:45;1.63;;;1.27;;
7541;SDS011;3812;50.006;8.230;2022-09-03T04:06:13;1.20;;;1.10;;
7541;SDS011;3812;50.006;8.230;2022-09-03T04:08:41;1.30;;;1.20;;
7541;SDS011;3812;50.006;8.230;2022-09-03T04:11:09;1.40;;;1.20;;
7541;SDS011;3812;50.006;8.230;2022-09-03T04:13:37;2.00;;;1.30;;
7541;SDS011;3812;50.006;8.230;2022-09-03T04:16:05;1.60;;;1.30;;
7541;SDS011;3812;50.006;8.230;2022-09-03T04:18:35;1.30;;;1.20;;
7541;SDS011;3812;50.006;8.230;2022-09-03T04:21:03;1.50;;;1.40;;
7541;SDS011;3812;50.006;8.230;2022-09-03T04:23:31;2.07;;;1.20;;
7541;SDS011;3812;50.006;8.230;2022-09-03T04:25:58;1.37;;;1.27;;
7541;SDS011;3812;50.006;8.230;2022-09-03T04:28:26;1.53;;;1.43;;
7541;SDS011;3812;50.006;8.230;2022-09-03T04:30:53;1.40;;;1.30;;
7541;SDS011;3812;50.006;8.230;2022-09-03T04:33:23;1.20;;;1.10;;
7541;SDS011;3812;50.006;8.230;2022-09-03T04:35:51;2.10;;;1.33;;
7541;SDS011;3812;50.006;8.230;2022-09-03T04:38:19;1.30;;;1.20;;
7541;SDS011;3812;50.006;8.230;2022-09-03T04:40:50;1.53;;;1.20;;
7541;SDS011;3812;50.006;8.230;2022-09-03T04:43:17;1.40;;;1.30;;
7541;SDS011;3812;50.006;8.230;2022-09-03T04:45:45;1.37;;;1.20;;
7541;SDS011;3812;50.006;8.230;2022-09-03T04:48:12;1.93;;;1.30;;
7541;SDS011;3812;50.006;8.230;2022-09-03T04:50:39;2.93;;;1.20;;
7541;SDS011;3812;50.006;8.230;2022-09-03T04:53:08;1.47;;;1.37;;
7541;SDS011;3812;50.006;8.230;2022-09-03T04:55:36;1.50;;;1.40;;
7541;SDS011;3812;50.006;8.230;2022-09-03T04:58:03;1.60;;;1.30;;
7541;SDS011;3812;50.006;8.230;2022-09-03T05:00:31;1.20;;;1.10;;
7541;SDS011;3812;50.006;8.230;2022-09-03T05:02:59;1.30;;;1.20;;
7541;SDS011;3812;50.006;8.230;2022-09-03T05:05:27;2.13;;;1.10;;
7541;SDS011;3812;50.006;8.230;2022-09-03T05:07:56;2.27;;;1.10;;
7541;SDS011;3812;50.006;8.230;2022-09-03T05:10:25;5.50;;;1.30;;
7541;SDS011;3812;50.006;8.230;2022-09-03T05:12:56;1.50;;;1.40;;
7541;SDS011;3812;50.006;8.230;2022-09-03T05:15:24;1.87;;;1.47;;
7541;SDS011;3812;50.006;8.230;2022-09-03T05:17:54;1.23;;;1.13;;
7541;SDS011;3812;50.006;8.230;2022-09-03T05:20:22;1.43;;;1.33;;
7541;SDS011;3812;50.006;8.230;2022-09-03T05:22:49;2.57;;;1.30;;
7541;SDS011;3812;50.006;8.230;2022-09-03T05:25:16;2.33;;;1.30;;
7541;SDS011;3812;50.006;8.230;2022-09-03T05:27:45;1.00;;;1.00;;
7541;SDS011;3812;50.006;8.230;2022-09-03T05:30:12;2.27;;;1.67;;
7541;SDS011;3812;50.006;8.230;2022-09-03T05:32:40;1.37;;;1.20;;
7541;SDS011;3812;50.006;8.230;2022-09-03T05:35:08;2.97;;;1.13;;
7541;SDS011;3812;50.006;8.230;2022-09-03T05:37:36;1.83;;;1.20;;
7541;SDS011;3812;50.006;8.230;2022-09-03T05:40:04;1.87;;;1.20;;
7541;SDS011;3812;50.006;8.230;2022-09-03T05:42:33;1.83;;;1.30;;
7541;SDS011;3812;50.006;8.230;2022-09-03T05:45:04;1.77;;;1.40;;
7541;SDS011;3812;50.006;8.230;2022-09-03T05:47:34;2.20;;;1.70;;
7541;SDS011;3812;50.006;8.230;2022-09-03T05:50:01;3.03;;;1.30;;
7541;SDS011;3812;50.006;8.230;2022-09-03T05:52:28;3.73;;;1.40;;
7541;SDS011;3812;50.006;8.230;2022-09-03T05:54:56;1.67;;;1.50;;
7541;SDS011;3812;50.006;8.230;2022-09-03T05:57:23;1.50;;;1.40;;
7541;SDS011;3812;50.006;8.230;2022-09-03T05:59:50;5.87;;;1.50;;
7541;SDS011;3812;50.006;8.230;2022-09-03T06:02:19;2.37;;;1.40;;
7541;SDS011;3812;50.006;8.230;2022-09-03T06:04:46;1.60;;;1.50;;
7541;SDS011;3812;50.006;8.230;2022-09-03T06:07:13;2.40;;;1.63;;
7541;SDS011;3812;50.006;8.230;2022-09-03T06:09:41;3.37;;;1.60;;
7541;SDS011;3812;50.006;8.230;2022-09-03T06:12:08;1.97;;;1.60;;
7541;SDS011;3812;50.006;8.230;2022-09-03T06:14:35;1.87;;;1.40;;
7541;SDS011;3812;50.006;8.230;2022-09-03T06:17:02;1.93;;;1.70;;
7541;SDS011;3812;50.006;8.230;2022-09-03T06:19:31;2.23;;;1.70;;
7541;SDS011;3812;50.006;8.230;2022-09-03T06:21:58;4.33;;;1.60;;
7541;SDS011;3812;50.006;8.230;2022-09-03T06:24:25;2.47;;;1.70;;
7541;SDS011;3812;50.006;8.230;2022-09-03T06:26:54;1.60;;;1.50;;
7541;SDS011;3812;50.006;8.230;2022-09-03T06:29:21;1.80;;;1.60;;
7541;SDS011;3812;50.006;8.230;2022-09-03T06:31:48;2.03;;;1.70;;
7541;SDS011;3812;50.006;8.230;2022-09-03T06:34:16;1.80;;;1.60;;
7541;SDS011;3812;50.006;8.230;2022-09-03T06:36:45;2.20;;;1.40;;
7541;SDS011;3812;50.006;8.230;2022-09-03T06:39:12;1.80;;;1.70;;
7541;SDS011;3812;50.006;8.230;2022-09-03T06:41:39;2.90;;;1.43;;
7541;SDS011;3812;50.006;8.230;2022-09-03T06:44:09;3.33;;;1.83;;
7541;SDS011;3812;50.006;8.230;2022-09-03T06:46:38;2.33;;;1.50;;
7541;SDS011;3812;50.006;8.230;2022-09-03T06:49:07;2.90;;;1.60;;
7541;SDS011;3812;50.006;8.230;2022-09-03T06:51:34;1.87;;;1.73;;
7541;SDS011;3812;50.006;8.230;2022-09-03T06:54:05;1.90;;;1.63;;
7541;SDS011;3812;50.006;8.230;2022-09-03T06:56:33;1.60;;;1.50;;
7541;SDS011;3812;50.006;8.230;2022-09-03T06:59:03;1.93;;;1.70;;
7541;SDS011;3812;50.006;8.230;2022-09-03T07:01:31;2.03;;;1.63;;
7541;SDS011;3812;50.006;8.230;2022-09-03T07:03:59;2.33;;;1.70;;
7541;SDS011;3812;50.006;8.230;2022-09-03T07:06:27;2.43;;;1.50;;
7541;SDS011;3812;50.006;8.230;2022-09-03T07:08:54;1.87;;;1.57;;
7541;SDS011;3812;50.006;8.230;2022-09-03T07:11:25;2.93;;;1.83;;
7541;SDS011;3812;50.006;8.230;2022-09-03T07:13:53;1.90;;;1.70;;
7541;SDS011;3812;50.006;8.230;2022-09-03T07:16:21;2.57;;;1.80;;
7541;SDS011;3812;50.006;8.230;2022-09-03T07:18:49;2.80;;;2.00;;
7541;SDS011;3812;50.006;8.230;2022-09-03T07:21:17;2.93;;;1.67;;
7541;SDS011;3812;50.006;8.230;2022-09-03T07:23:45;2.33;;;1.60;;
7541;SDS011;3812;50.006;8.230;2022-09-03T07:26:13;2.90;;;1.90;;
7541;SDS011;3812;50.006;8.230;2022-09-03T07:28:42;2.67;;;2.00;;
7541;SDS011;3812;50.006;8.230;2022-09-03T07:31:11;2.30;;;2.10;;
7541;SDS011;3812;50.006;8.230;2022-09-03T07:33:39;2.17;;;1.70;;
7541;SDS011;3812;50.006;8.230;2022-09-03T07:36:07;2.90;;;1.80;;
7541;SDS011;3812;50.006;8.230;2022-09-03T07:38:35;2.37;;;2.17;;
7541;SDS011;3812;50.006;8.230;2022-09-03T07:41:03;2.20;;;1.97;;
7541;SDS011;3812;50.006;8.230;2022-09-03T07:43:32;3.00;;;1.90;;
7541;SDS011;3812;50.006;8.230;2022-09-03T07:46:02;2.47;;;2.07;;
7541;SDS011;3812;50.006;8.230;2022-09-03T07:48:29;3.40;;;2.10;;
7541;SDS011;3812;50.006;8.230;2022-09-03T07:50:57;3.13;;;2.20;;
7541;SDS011;3812;50.006;8.230;2022-09-03T07:53:25;4.00;;;2.10;;
7541;SDS011;3812;50.006;8.230;2022-09-03T07:55:53;2.20;;;1.90;;
7541;SDS011;3812;50.006;8.230;2022-09-03T07:58:21;2.90;;;2.10;;
7541;SDS011;3812;50.006;8.230;2022-09-03T08:00:49;2.53;;;1.93;;
7541;SDS011;3812;50.006;8.230;2022-09-03T08:03:18;2.90;;;2.17;;
7541;SDS011;3812;50.006;8.230;2022-09-03T08:05:45;1.90;;;1.70;;
7541;SDS011;3812;50.006;8.230;2022-09-03T08:08:13;3.90;;;2.70;;
7541;SDS011;3812;50.006;8.230;2022-09-03T08:10:42;1.77;;;1.67;;
7541;SDS011;3812;50.006;8.230;2022-09-03T08:13:09;3.43;;;2.13;;
7541;SDS011;3812;50.006;8.230;2022-09-03T08:15:36;2.30;;;1.97;;
7541;SDS011;3812;50.006;8.230;2022-09-03T08:18:07;3.00;;;1.97;;
7541;SDS011;3812;50.006;8.230;2022-09-03T08:20:36;2.70;;;1.70;;
7541;SDS011;3812;50.006;8.230;2022-09-03T08:23:04;3.90;;;2.17;;
7541;SDS011;3812;50.006;8.230;2022-09-03T08:25:31;2.33;;;2.13;;
7541;SDS011;3812;50.006;8.230;2022-09-03T08:27:59;2.90;;;2.20;;
7541;SDS011;3812;50.006;8.230;2022-09-03T08:30:26;2.27;;;2.07;;
7541;SDS011;3812;50.006;8.230;2022-09-03T08:32:54;2.60;;;1.90;;
7541;SDS011;3812;50.006;8.230;2022-09-03T08:35:21;2.80;;;2.10;;
7541;SDS011;3812;50.006;8.230;2022-09-03T08:37:50;2.57;;;2.30;;
7541;SDS011;3812;50.006;8.230;2022-09-03T08:40:18;2.27;;;2.00;;
7541;SDS011;3812;50.006;8.230;2022-09-03T08:42:57;2.07;;;1.90;;
7541;SDS011;3812;50.006;8.230;2022-09-03T08:45:27;3.00;;;1.80;;
7541;SDS011;3812;50.006;8.230;2022-09-03T08:47:57;2.40;;;1.83;;
7541;SDS011;3812;50.006;8.230;2022-09-03T08:50:27;2.87;;;1.97;;
7541;SDS011;3812;50.006;8.230;2022-09-03T08:52:57;2.07;;;1.87;;
7541;SDS011;3812;50.006;8.230;2022-09-03T08:55:27;2.77;;;1.87;;
7541;SDS011;3812;50.006;8.230;2022-09-03T08:57:56;2.57;;;2.00;;
7541;SDS011;3812;50.006;8.230;2022-09-03T09:00:24;2.93;;;2.03;;
7541;SDS011;3812;50.006;8.230;2022-09-03T09:02:59;2.93;;;2.07;;
7541;SDS011;3812;50.006;8.230;2022-09-03T09:05:33;4.87;;;2.03;;
7541;SDS011;3812;50.006;8.230;2022-09-03T09:08:08;2.23;;;1.77;;
7541;SDS011;3812;50.006;8.230;2022-09-03T09:10:39;2.37;;;1.83;;
7541;SDS011;3812;50.006;8.230;2022-09-03T09:13:12;3.00;;;2.23;;
7541;SDS011;3812;50.006;8.230;2022-09-03T09:15:46;3.10;;;2.20;;
7541;SDS011;3812;50.006;8.230;2022-09-03T09:18:16;3.50;;;2.30;;
7541;SDS011;3812;50.006;8.230;2022-09-03T09:20:47;3.27;;;2.40;;
7541;SDS011;3812;50.006;8.230;2022-09-03T09:23:19;2.43;;;2.23;;
7541;SDS011;3812;50.006;8.230;2022-09-03T09:25:50;2.37;;;2.00;;
7541;SDS011;3812;50.006;8.230;2022-09-03T09:28:20;3.00;;;1.90;;
7541;SDS011;3812;50.006;8.230;2022-09-03T09:30:49;2.00;;;1.83;;
7541;SDS011;3812;50.006;8.230;2022-09-03T09:33:17;3.03;;;1.83;;
7541;SDS011;3812;50.006;8.230;2022-09-03T09:35:45;2.40;;;2.20;;
7541;SDS011;3812;50.006;8.230;2022-09-03T09:38:13;3.47;;;2.17;;
7541;SDS011;3812;50.006;8.230;2022-09-03T09:40:42;2.40;;;1.80;;
7541;SDS011;3812;50.006;8.230;2022-09-03T09:43:10;3.50;;;1.93;;
7541;SDS011;3812;50.006;8.230;2022-09-03T09:45:41;3.07;;;2.23;;
7541;SDS011;3812;50.006;8.230;2022-09-03T09:48:09;2.73;;;2.17;;
7541;SDS011;3812;50.006;8.230;2022-09-03T09:50:39;3.60;;;1.97;;
7541;SDS011;3812;50.006;8.230;2022-09-03T09:53:08;3.60;;;2.57;;
7541;SDS011;3812;50.006;8.230;2022-09-03T09:55:52;2.17;;;2.00;;
7541;SDS011;3812;50.006;8.230;2022-09-03T09:58:20;2.47;;;2.13;;
7541;SDS011;3812;50.006;8.230;2022-09-03T10:00:58;2.10;;;1.77;;
7541;SDS011;3812;50.006;8.230;2022-09-03T10:03:27;3.07;;;2.10;;
7541;SDS011;3812;50.006;8.230;2022-09-03T10:06:00;3.20;;;2.20;;
7541;SDS011;3812;50.006;8.230;2022-09-03T10:08:50;3.53;;;1.77;;
7541;SDS011;3812;50.006;8.230;2022-09-03T10:11:19;2.03;;;1.83;;
7541;SDS011;3812;50.006;8.230;2022-09-03T10:13:49;3.53;;;2.10;;
7541;SDS011;3812;50.006;8.230;2022-09-03T10:16:20;3.00;;;1.67;;
7541;SDS011;3812;50.006;8.230;2022-09-03T10:18:49;4.40;;;2.30;;
7541;SDS011;3812;50.006;8.230;2022-09-03T10:21:21;4.53;;;2.40;;
7541;SDS011;3812;50.006;8.230;2022-09-03T10:23:53;2.43;;;2.10;;
7541;SDS011;3812;50.006;8.230;2022-09-03T10:26:23;2.37;;;2.00;;
7541;SDS011;3812;50.006;8.230;2022-09-03T10:28:55;3.03;;;2.40;;
7541;SDS011;3812;50.006;8.230;2022-09-03T10:31:27;2.90;;;2.37;;
7541;SDS011;3812;50.006;8.230;2022-09-03T10:34:02;3.83;;;2.23;;
7541;SDS011;3812;50.006;8.230;2022-09-03T10:36:33;3.07;;;2.70;;
7541;SDS011;3812;50.006;8.230;2022-09-03T10:39:03;7.37;;;2.90;;
7541;SDS011;3812;50.006;8.230;2022-09-03T10:41:39;2.60;;;2.30;;
7541;SDS011;3812;50.006;8.230;2022-09-03T10:44:12;2.33;;;2.13;;
7541;SDS011;3812;50.006;8.230;2022-09-03T10:46:46;3.87;;;2.60;;
7541;SDS011;3812;50.006;8.230;2022-09-03T10:49:19;3.90;;;2.70;;
7541;SDS011;3812;50.006;8.230;2022-09-03T10:51:51;4.30;;;2.70;;
7541;SDS011;3812;50.006;8.230;2022-09-03T10:54:26;3.37;;;2.63;;
7541;SDS011;3812;50.006;8.230;2022-09-03T10:56:59;3.33;;;2.60;;
7541;SDS011;3812;50.006;8.230;2022-09-03T10:59:35;4.13;;;2.97;;
7541;SDS011;3812;50.006;8.230;2022-09-03T11:02:16;3.67;;;3.20;;
7541;SDS011;3812;50.006;8.230;2022-09-03T11:04:49;3.43;;;2.77;;
7541;SDS011;3812;50.006;8.230;2022-09-03T11:07:19;3.70;;;3.00;;
7541;SDS011;3812;50.006;8.230;2022-09-03T11:09:49;3.20;;;2.70;;
7541;SDS011;3812;50.006;8.230;2022-09-03T11:12:21;3.87;;;2.37;;
7541;SDS011;3812;50.006;8.230;2022-09-03T11:14:51;4.30;;;2.53;;
7541;SDS011;3812;50.006;8.230;2022-09-03T11:17:20;2.43;;;2.10;;
7541;SDS011;3812;50.006;8.230;2022-09-03T11:19:49;3.23;;;2.93;;
7541;SDS011;3812;50.006;8.230;2022-09-03T11:22:17;3.50;;;2.40;;
7541;SDS011;3812;50.006;8.230;2022-09-03T11:24:49;2.93;;;2.50;;
7541;SDS011;3812;50.006;8.230;2022-09-03T11:27:22;3.30;;;2.50;;
7541;SDS011;3812;50.006;8.230;2022-09-03T11:29:57;3.53;;;2.03;;
7541;SDS011;3812;50.006;8.230;2022-09-03T11:32:28;3.03;;;2.10;;
7541;SDS011;3812;50.006;8.230;2022-09-03T11:34:57;5.87;;;2.03;;
7541;SDS011;3812;50.006;8.230;2022-09-03T11:37:25;2.70;;;2.30;;
7541;SDS011;3812;50.006;8.230;2022-09-03T11:39:53;4.63;;;2.40;;
7541;SDS011;3812;50.006;8.230;2022-09-03T11:42:26;3.47;;;2.80;;
7541;SDS011;3812;50.006;8.230;2022-09-03T11:44:58;4.00;;;2.77;;
7541;SDS011;3812;50.006;8.230;2022-09-03T11:47:36;3.53;;;2.60;;
7541;SDS011;3812;50.006;8.230;2022-09-03T11:50:06;2.47;;;2.07;;
7541;SDS011;3812;50.006;8.230;2022-09-03T11:52:33;2.47;;;1.90;;
7541;SDS011;3812;50.006;8.230;2022-09-03T11:55:05;1.77;;;1.60;;
7541;SDS011;3812;50.006;8.230;2022-09-03T11:57:38;2.17;;;1.60;;
7541;SDS011;3812;50.006;8.230;2022-09-03T12:00:08;4.00;;;1.75;;
7541;SDS011;3812;50.006;8.230;2022-09-03T12:02:40;2.35;;;1.90;;
7541;SDS011;3812;50.006;8.230;2022-09-03T12:05:17;4.35;;;1.60;;
7541;SDS011;3812;50.006;8.230;2022-09-03T12:07:51;4.72;;;2.35;;
7541;SDS011;3812;50.006;8.230;2022-09-03T12:10:27;1.95;;;1.83;;
7541;SDS011;3812;50.006;8.230;2022-09-03T12:13:01;1.55;;;1.40;;
7541;SDS011;3812;50.006;8.230;2022-09-03T12:15:36;1.90;;;1.52;;
7541;SDS011;3812;50.006;8.230;2022-09-03T12:18:07;2.63;;;1.90;;
7541;SDS011;3812;50.006;8.230;2022-09-03T12:20:45;1.85;;;1.58;;
7541;SDS011;3812;50.006;8.230;2022-09-03T12:23:13;2.38;;;1.83;;
7541;SDS011;3812;50.006;8.230;2022-09-03T12:25:52;1.75;;;1.50;;
7541;SDS011;3812;50.006;8.230;2022-09-03T12:28:21;2.58;;;1.70;;
7541;SDS011;3812;50.006;8.230;2022-09-03T12:30:50;2.00;;;1.80;;
7541;SDS011;3812;50.006;8.230;2022-09-03T12:33:18;3.13;;;1.90;;
7541;SDS011;3812;50.006;8.230;2022-09-03T12:35:54;3.67;;;1.70;;
7541;SDS011;3812;50.006;8.230;2022-09-03T12:38:22;2.38;;;1.98;;
7541;SDS011;3812;50.006;8.230;2022-09-03T12:40:50;2.15;;;1.55;;
7541;SDS011;3812;50.006;8.230;2022-09-03T12:43:19;3.15;;;1.60;;
7541;SDS011;3812;50.006;8.230;2022-09-03T12:45:48;2.00;;;1.60;;
7541;SDS011;3812;50.006;8.230;2022-09-03T12:48:16;3.23;;;1.90;;
7541;SDS011;3812;50.006;8.230;2022-09-03T12:50:45;2.17;;;1.30;;
7541;SDS011;3812;50.006;8.230;2022-09-03T12:53:13;3.03;;;2.10;;
7541;SDS011;3812;50.006;8.230;2022-09-03T12:55:41;2.60;;;1.70;;
7541;SDS011;3812;50.006;8.230;2022-09-03T12:58:10;2.30;;;1.83;;
7541;SDS011;3812;50.006;8.230;2022-09-03T13:00:39;1.80;;;1.50;;
7541;SDS011;3812;50.006;8.230;2022-09-03T13:03:10;1.70;;;1.60;;
7541;SDS011;3812;50.006;8.230;2022-09-03T13:05:40;2.13;;;1.55;;
7541;SDS011;3812;50.006;8.230;2022-09-03T13:08:09;1.40;;;1.30;;
7541;SDS011;3812;50.006;8.230;2022-09-03T13:10:40;1.33;;;1.20;;
7541;SDS011;3812;50.006;8.230;2022-09-03T13:13:16;2.33;;;1.30;;
7541;SDS011;3812;50.006;8.230;2022-09-03T13:15:54;1.50;;;1.40;;
7541;SDS011;3812;50.006;8.230;2022-09-03T13:18:24;1.20;;;1.08;;
7541;SDS011;3812;50.006;8.230;2022-09-03T13:21:00;1.60;;;1.08;;
7541;SDS011;3812;50.006;8.230;2022-09-03T13:23:41;1.27;;;1.00;;
7541;SDS011;3812;50.006;8.230;2022-09-03T13:26:17;1.17;;;0.95;;
7541;SDS011;3812;50.006;8.230;2022-09-03T13:28:52;1.10;;;1.00;;
7541;SDS011;3812;50.006;8.230;2022-09-03T13:31:23;1.67;;;1.10;;
7541;SDS011;3812;50.006;8.230;2022-09-03T13:33:54;1.13;;;1.02;;
7541;SDS011;3812;50.006;8.230;2022-09-03T13:36:23;1.20;;;1.10;;
7541;SDS011;3812;50.006;8.230;2022-09-03T13:38:52;1.75;;;1.02;;
7541;SDS011;3812;50.006;8.230;2022-09-03T13:41:24;2.85;;;1.05;;
7541;SDS011;3812;50.006;8.230;2022-09-03T13:44:00;1.80;;;1.30;;
7541;SDS011;3812;50.006;8.230;2022-09-03T13:46:32;2.08;;;1.00;;
7541;SDS011;3812;50.006;8.230;2022-09-03T13:49:08;1.45;;;1.08;;
7541;SDS011;3812;50.006;8.230;2022-09-03T13:51:57;1.42;;;1.08;;
7541;SDS011;3812;50.006;8.230;2022-09-03T13:54:29;1.40;;;1.30;;
7541;SDS011;3812;50.006;8.230;2022-09-03T13:57:00;2.17;;;1.40;;
7541;SDS011;3812;50.006;8.230;2022-09-03T13:59:30;3.65;;;1.58;;
7541;SDS011;3812;50.006;8.230;2022-09-03T14:02:15;3.17;;;1.60;;
7541;SDS011;3812;50.006;8.230;2022-09-03T14:04:50;1.63;;;1.20;;
7541;SDS011;3812;50.006;8.230;2022-09-03T14:07:20;1.50;;;1.40;;
7541;SDS011;3812;50.006;8.230;2022-09-03T14:09:53;3.77;;;1.60;;
7541;SDS011;3812;50.006;8.230;2022-09-03T14:12:24;1.83;;;1.50;;
7541;SDS011;3812;50.006;8.230;2022-09-03T14:14:57;1.40;;;1.30;;
7541;SDS011;3812;50.006;8.230;2022-09-03T14:17:30;2.13;;;1.80;;
7541;SDS011;3812;50.006;8.230;2022-09-03T14:20:01;1.70;;;1.50;;
7541;SDS011;3812;50.006;8.230;2022-09-03T14:22:31;2.97;;;1.40;;
7541;SDS011;3812;50.006;8.230;2022-09-03T14:25:04;1.30;;;1.20;;
7541;SDS011;3812;50.006;8.230;2022-09-03T14:27:35;1.40;;;1.30;;
7541;SDS011;3812;50.006;8.230;2022-09-03T14:30:03;2.42;;;1.60;;
7541;SDS011;3812;50.006;8.230;2022-09-03T14:32:36;2.20;;;1.60;;
7541;SDS011;3812;50.006;8.230;2022-09-03T14:38:01;1.70;;;1.60;;
7541;SDS011;3812;50.006;8.230;2022-09-03T14:40:34;2.10;;;1.53;;
7541;SDS011;3812;50.006;8.230;2022-09-03T14:43:10;1.77;;;1.67;;
7541;SDS011;3812;50.006;8.230;2022-09-03T14:45:47;4.60;;;2.03;;
7541;SDS011;3812;50.006;8.230;2022-09-03T14:48:22;1.87;;;1.77;;
7541;SDS011;3812;50.006;8.230;2022-09-03T14:50:57;2.23;;;1.90;;
7541;SDS011;3812;50.006;8.230;2022-09-03T14:53:34;2.00;;;1.87;;
7541;SDS011;3812;50.006;8.230;2022-09-03T14:56:11;2.20;;;2.00;;
7541;SDS011;3812;50.006;8.230;2022-09-03T14:58:48;2.30;;;1.90;;
7541;SDS011;3812;50.006;8.230;2022-09-03T15:01:23;2.27;;;1.83;;
7541;SDS011;3812;50.006;8.230;2022-09-03T15:06:39;3.10;;;1.90;;
7541;SDS011;3812;50.006;8.230;2022-09-03T15:09:14;1.77;;;1.67;;
7541;SDS011;3812;50.006;8.230;2022-09-03T15:11:45;2.27;;;1.87;;
7541;SDS011;3812;50.006;8.230;2022-09-03T15:14:14;2.03;;;1.80;;
7541;SDS011;3812;50.006;8.230;2022-09-03T15:16:46;2.17;;;2.00;;
7541;SDS011;3812;50.006;8.230;2022-09-03T15:19:23;3.13;;;2.10;;
7541;SDS011;3812;50.006;8.230;2022-09-03T15:22:03;2.33;;;1.73;;
7541;SDS011;3812;50.006;8.230;2022-09-03T15:24:37;2.23;;;1.90;;
7541;SDS011;3812;50.006;8.230;2022-09-03T15:27:11;2.30;;;2.10;;
7541;SDS011;3812;50.006;8.230;2022-09-03T15:29:46;2.20;;;2.00;;
7541;SDS011;3812;50.006;8.230;2022-09-03T15:32:17;2.40;;;2.20;;
7541;SDS011;3812;50.006;8.230;2022-09-03T15:34:58;2.40;;;2.00;;
7541;SDS011;3812;50.006;8.230;2022-09-03T15:37:31;3.07;;;2.10;;
7541;SDS011;3812;50.006;8.230;2022-09-03T15:40:03;2.77;;;2.00;;